This is the latest recevied weather packets stored in our database for station/object OM1PU-6. If no packets are shown the sender has not sent any weather packets the latest 10 day(s).
| Time | Temp. | Humidity | Pressure | Rain* | Wind** | Luminosity | Snow |
|---|---|---|---|---|---|---|---|
| 1788236758 | 17.22° C | 88% | 1015.1 hPa | 1.02 mm | - | - | - |
| 1788222357 | 18.33° C | 91% | 1014.3 hPa | 1.02 mm | - | - | - |
| 1788221458 | 18.33° C | 91% | 1014.4 hPa | 1.02 mm | - | - | - |
| 1788209757 | 23.33° C | 59% | 1013.9 hPa | 0 mm | - | - | - |
| 1788207958 | 23.33° C | 59% | 1012.9 hPa | 0 mm | - | - | - |
| 1788207058 | 23.33° C | 57% | 1012.7 hPa | 0 mm | - | - | - |
| 1788206157 | 23.33° C | 57% | 1012.3 hPa | 0 mm | - | - | - |
| 1788205258 | 23.89° C | 55% | 1011.5 hPa | 0 mm | - | - | - |
| 1788204357 | 24.44° C | 55% | 1011.8 hPa | 0 mm | - | - | - |
| 1788203458 | 24.44° C | 53% | 1011.2 hPa | 0 mm | - | - | - |
| 1788202557 | 24.44° C | 52% | 1011.2 hPa | 0 mm | - | - | - |
| 1788201658 | 23.89° C | 53% | 1011 hPa | 0 mm | - | - | - |
| 1788200758 | 23.89° C | 58% | 1011.1 hPa | 0 mm | - | - | - |
| 1788199857 | 23.89° C | 63% | 1011.2 hPa | 0 mm | - | - | - |
| 1788198058 | 25.56° C | 52% | 1010.6 hPa | 0 mm | - | - | - |
| 1788197157 | 26.67° C | 50% | 1010.8 hPa | 0 mm | - | - | - |
| 1788196257 | 27.22° C | 47% | 1010.6 hPa | 0 mm | - | - | - |
| 1788195357 | 27.78° C | 44% | 1011 hPa | 0 mm | - | - | - |
| 1788194457 | 27.78° C | 44% | 1010.9 hPa | 0 mm | - | - | - |
| 1788193557 | 28.89° C | 43% | 1011 hPa | 0 mm | - | - | - |
| 1788192657 | 29.44° C | 42% | 1011.1 hPa | 0 mm | - | - | - |
| 1788191757 | 30° C | 41% | 1011.3 hPa | 0 mm | - | - | - |
| 1788189957 | 29.44° C | 43% | 1011.2 hPa | 0 mm | - | - | - |
| 1788189057 | 30° C | 46% | 1011.6 hPa | 0 mm | - | - | - |
| 1788188157 | 30° C | 43% | 1011.6 hPa | 0 mm | - | - | - |
* Rain latest 24 hours (hover to see other rain measurements)
** Current wind speed in m/s (hover to see current wind gust speed)